Time,TemperatureF,DewpointF,PressureIn,WindDirection,WindDirectionDegrees,WindSpeedMPH,WindSpeedGustMPH,Humidity,HourlyPrecipIn,Conditions,Clouds,dailyrainin,SoftwareType,DateUTC
2013-03-03 00:00:00,35.1,27.6,29.64,North,360,2.1,5.8,74,0.00,OVC,,0.00,WeatherDisplay:10.37,2013-03-03 05:00:00,
2013-03-03 00:05:00,34.9,27.5,29.64,North,360,2.2,2.7,74,0.00,OVC,,0.00,WeatherDisplay:10.37,2013-03-03 05:05:00,
2013-03-03 00:10:00,34.8,28.0,29.64,SW,225,1.2,2.3,76,0.00,OVC,,0.00,WeatherDisplay:10.37,2013-03-03 05:10:00,
2013-03-03 00:15:00,34.7,27.6,29.64,NW,315,2.0,4.6,75,0.00,OVC,,0.00,WeatherDisplay:10.37,2013-03-03 05:15:00,
2013-03-03 00:20:00,34.7,27.3,29.64,North,360,4.5,6.9,74,0.00,OVC,,0.00,WeatherDisplay:10.37,2013-03-03 05:20:00,
2013-03-03 00:25:00,34.7,27.6,29.64,NNW,337,1.0,2.3,75,0.00,OVC,,0.00,WeatherDisplay:10.37,2013-03-03 05:25:00,
2013-03-03 00:30:00,34.7,27.6,29.64,North,360,1.5,2.7,75,0.00,OVC,,0.00,WeatherDisplay:10.37,2013-03-03 05:30:00,
2013-03-03 00:35:00,34.6,27.5,29.64,NE,45,1.8,2.3,75,0.00,OVC,,0.00,WeatherDisplay:10.37,2013-03-03 05:35:00,
2013-03-03 00:40:00,34.5,27.4,29.64,NNW,337,1.9,2.3,75,0.00,OVC,,0.00,WeatherDisplay:10.37,2013-03-03 05:40:00,
2013-03-03 00:45:00,34.5,27.4,29.64,West,270,2.6,2.6,75,0.00,OVC,,0.00,WeatherDisplay:10.37,2013-03-03 05:45:00,
2013-03-03 00:50:00,34.4,27.3,29.64,West,270,2.4,2.4,75,0.00,OVC,,0.00,WeatherDisplay:10.37,2013-03-03 05:50:00,
2013-03-03 00:55:00,34.3,27.5,29.64,WSW,247,0.2,1.3,76,0.00,OVC,,0.00,WeatherDisplay:10.37,2013-03-03 05:55:00,
2013-03-03 01:00:00,34.3,27.5,29.64,NE,45,1.0,4.1,76,0.00,OVC,,0.00,WeatherDisplay:10.37,2013-03-03 06:00:00,
2013-03-03 01:05:00,34.3,27.2,29.64,NNW,337,1.5,5.8,75,0.00,OVC,,0.00,WeatherDisplay:10.37,2013-03-03 06:05:00,
2013-03-03 01:10:00,34.3,27.5,29.64,NNW,337,0.6,2.3,76,0.00,OVC,,0.00,WeatherDisplay:10.37,2013-03-03 06:10:00,
2013-03-03 01:15:00,34.2,27.4,29.64,NNW,337,2.9,2.9,76,0.00,OVC,,0.00,WeatherDisplay:10.37,2013-03-03 06:15:00,
2013-03-03 01:20:00,34.1,27.3,29.64,NNE,22,2.0,2.7,76,0.00,OVC,,0.00,WeatherDisplay:10.37,2013-03-03 06:20:00,
2013-03-03 01:25:00,34.2,27.4,29.64,NE,45,1.8,2.3,76,0.00,OVC,,0.00,WeatherDisplay:10.37,2013-03-03 06:25:00,
2013-03-03 01:30:00,33.9,27.1,29.64,WNW,292,1.4,2.7,76,0.00,OVC,,0.00,WeatherDisplay:10.37,2013-03-03 06:30:00,
2013-03-03 01:35:00,33.9,27.8,29.64,WNW,292,3.4,3.4,78,0.00,OVC,,0.00,WeatherDisplay:10.37,2013-03-03 06:35:00,
2013-03-03 01:40:00,33.9,27.8,29.64,West,270,2.7,2.7,78,0.00,OVC,,0.00,WeatherDisplay:10.37,2013-03-03 06:40:00,
2013-03-03 01:45:00,33.9,28.1,29.64,West,270,3.0,3.0,79,0.00,OVC,,0.00,WeatherDisplay:10.37,2013-03-03 06:45:00,
2013-03-03 01:50:00,33.8,28.0,29.63,West,270,2.1,2.7,79,0.00,OVC,,0.00,WeatherDisplay:10.37,2013-03-03 06:50:00,
2013-03-03 01:55:00,33.7,27.9,29.63,West,270,3.1,3.1,79,0.00,OVC,,0.00,WeatherDisplay:10.37,2013-03-03 06:55:00,
2013-03-03 02:00:00,33.6,28.1,29.63,WNW,292,1.4,2.3,80,0.00,OVC,,0.00,WeatherDisplay:10.37,2013-03-03 07:00:00,
2013-03-03 02:05:00,33.6,27.8,29.63,West,270,2.6,2.7,79,0.00,OVC,,0.00,WeatherDisplay:10.37,2013-03-03 07:05:00,
2013-03-03 02:10:00,33.5,28.0,29.63,NW,315,0.0,1.2,80,0.00,OVC,,0.00,WeatherDisplay:10.37,2013-03-03 07:10:00,
2013-03-03 02:15:00,33.5,27.7,29.63,NNE,22,2.7,2.7,79,0.00,OVC,,0.00,WeatherDisplay:10.37,2013-03-03 07:15:00,
2013-03-03 02:20:00,33.4,27.6,29.63,NW,315,0.6,2.3,79,0.00,OVC,,0.00,WeatherDisplay:10.37,2013-03-03 07:20:00,
2013-03-03 02:25:00,33.3,27.5,29.63,North,360,1.8,2.3,79,0.00,OVC,,0.00,WeatherDisplay:10.37,2013-03-03 07:25:00,
2013-03-03 02:30:00,33.3,27.5,29.62,North,360,2.5,2.7,79,0.00,OVC,,0.00,WeatherDisplay:10.37,2013-03-03 07:30:00,
2013-03-03 02:35:00,33.3,27.2,29.62,NW,315,2.0,6.9,78,0.00,OVC,,0.00,WeatherDisplay:10.37,2013-03-03 07:35:00,
2013-03-03 02:40:00,33.3,27.5,29.62,WNW,292,0.7,2.7,79,0.00,OVC,,0.00,WeatherDisplay:10.37,2013-03-03 07:40:00,
2013-03-03 02:45:00,33.3,27.5,29.62,NW,315,0.6,4.6,79,0.00,OVC,,0.00,WeatherDisplay:10.37,2013-03-03 07:45:00,
2013-03-03 02:50:00,33.2,27.1,29.62,WNW,292,2.3,4.6,78,0.00,OVC,,0.00,WeatherDisplay:10.37,2013-03-03 07:50:00,
2013-03-03 02:55:00,33.2,27.1,29.62,WNW,292,2.4,4.6,78,0.00,OVC,,0.00,WeatherDisplay:10.37,2013-03-03 07:55:00,
2013-03-03 03:00:00,33.2,27.1,29.62,NNW,337,1.4,2.3,78,0.00,OVC,,0.00,WeatherDisplay:10.37,2013-03-03 08:00:00,
2013-03-03 03:05:00,33.1,27.3,29.62,North,360,1.9,2.3,79,0.00,OVC,,0.00,WeatherDisplay:10.37,2013-03-03 08:05:00,
2013-03-03 03:10:00,33.0,26.9,29.62,West,270,2.2,4.6,78,0.00,OVC,,0.00,WeatherDisplay:10.37,2013-03-03 08:10:00,
2013-03-03 03:15:00,33.0,26.9,29.62,West,270,3.1,4.6,78,0.00,OVC,,0.00,WeatherDisplay:10.37,2013-03-03 08:15:00,
2013-03-03 03:20:00,32.9,27.1,29.62,WNW,292,2.4,2.4,79,0.00,OVC,,0.00,WeatherDisplay:10.37,2013-03-03 08:20:00,
2013-03-03 03:25:00,32.9,27.1,29.62,West,270,1.2,4.6,79,0.00,OVC,,0.00,WeatherDisplay:10.37,2013-03-03 08:25:00,
2013-03-03 03:30:00,32.9,26.8,29.62,WNW,292,2.0,2.3,78,0.00,OVC,,0.00,WeatherDisplay:10.37,2013-03-03 08:30:00,
2013-03-03 03:35:00,32.9,26.8,29.62,WNW,292,1.7,2.7,78,0.00,OVC,,0.00,WeatherDisplay:10.37,2013-03-03 08:35:00,
2013-03-03 03:40:00,32.8,26.7,29.62,NW,315,0.6,2.3,78,0.00,OVC,,0.00,WeatherDisplay:10.37,2013-03-03 08:40:00,
2013-03-03 03:45:00,32.7,26.6,29.62,West,270,1.7,2.3,78,0.00,OVC,,0.00,WeatherDisplay:10.37,2013-03-03 08:45:00,
2013-03-03 03:50:00,32.7,26.6,29.62,WNW,292,2.8,2.8,78,0.00,OVC,,0.00,WeatherDisplay:10.37,2013-03-03 08:50:00,
2013-03-03 03:55:00,32.7,26.6,29.62,WNW,292,2.5,2.5,78,0.00,OVC,,0.00,WeatherDisplay:10.37,2013-03-03 08:55:00,
2013-03-03 04:00:00,32.7,26.6,29.62,West,270,1.4,2.7,78,0.00,OVC,,0.00,WeatherDisplay:10.37,2013-03-03 09:00:00,
2013-03-03 04:05:00,32.6,26.5,29.62,West,270,1.9,4.6,78,0.00,OVC,,0.00,WeatherDisplay:10.37,2013-03-03 09:05:00,
2013-03-03 04:10:00,32.5,26.7,29.62,NW,315,2.9,2.9,79,0.00,OVC,,0.00,WeatherDisplay:10.37,2013-03-03 09:10:00,
2013-03-03 04:15:00,32.5,26.7,29.62,NW,315,2.0,2.7,79,0.00,OVC,,0.00,WeatherDisplay:10.37,2013-03-03 09:15:00,
2013-03-03 04:20:00,32.5,26.4,29.62,West,270,3.2,5.8,78,0.00,OVC,,0.00,WeatherDisplay:10.37,2013-03-03 09:20:00,
2013-03-03 04:25:00,32.4,26.3,29.62,NW,315,3.4,5.8,78,0.00,OVC,,0.00,WeatherDisplay:10.37,2013-03-03 09:25:00,
2013-03-03 04:30:00,32.4,26.3,29.62,NW,315,2.6,4.6,78,0.00,OVC,,0.00,WeatherDisplay:10.37,2013-03-03 09:30:00,
2013-03-03 04:35:00,32.3,26.2,29.62,West,270,2.6,2.6,78,0.00,OVC,,0.00,WeatherDisplay:10.37,2013-03-03 09:35:00,
2013-03-03 04:40:00,32.3,26.2,29.62,NNW,337,3.1,4.6,78,0.00,OVC,,0.00,WeatherDisplay:10.37,2013-03-03 09:40:00,
2013-03-03 04:45:00,32.3,26.2,29.62,West,270,3.0,3.0,78,0.00,OVC,,0.00,WeatherDisplay:10.37,2013-03-03 09:45:00,
2013-03-03 04:50:00,32.3,26.5,29.62,WNW,292,3.1,4.6,79,0.00,OVC,,0.00,WeatherDisplay:10.37,2013-03-03 09:50:00,
2013-03-03 04:55:00,32.2,26.4,29.62,NNW,337,2.0,2.3,79,0.00,OVC,,0.00,WeatherDisplay:10.37,2013-03-03 09:55:00,
2013-03-03 05:00:00,32.1,26.3,29.62,North,360,1.2,2.3,79,0.00,OVC,,0.00,WeatherDisplay:10.37,2013-03-03 10:00:00,
2013-03-03 05:05:00,32.1,26.3,29.62,West,270,1.5,5.8,79,0.00,OVC,,0.00,WeatherDisplay:10.37,2013-03-03 10:05:00,
2013-03-03 05:10:00,32.0,25.9,29.62,NNW,337,0.8,2.3,78,0.00,OVC,,0.00,WeatherDisplay:10.37,2013-03-03 10:10:00,
2013-03-03 05:15:00,32.0,26.2,29.62,West,270,2.7,2.7,79,0.00,OVC,,0.00,WeatherDisplay:10.37,2013-03-03 10:15:00,
2013-03-03 05:20:00,31.9,26.4,29.62,WNW,292,1.1,1.2,80,0.00,OVC,,0.00,WeatherDisplay:10.37,2013-03-03 10:20:00,
2013-03-03 05:25:00,31.9,26.1,29.62,NW,315,3.9,5.8,79,0.00,OVC,,0.00,WeatherDisplay:10.37,2013-03-03 10:25:00,
2013-03-03 05:30:00,31.9,26.1,29.62,NNW,337,0.6,2.7,79,0.00,OVC,,0.00,WeatherDisplay:10.37,2013-03-03 10:30:00,
2013-03-03 05:35:00,31.9,26.4,29.62,WNW,292,2.5,2.7,80,0.00,OVC,,0.00,WeatherDisplay:10.37,2013-03-03 10:35:00,
2013-03-03 05:40:00,31.9,26.1,29.62,West,270,2.5,2.5,79,0.00,OVC,,0.00,WeatherDisplay:10.37,2013-03-03 10:40:00,
2013-03-03 05:45:00,31.9,26.1,29.62,WNW,292,2.7,2.7,79,0.00,OVC,,0.00,WeatherDisplay:10.37,2013-03-03 10:45:00,
2013-03-03 05:50:00,31.8,26.3,29.62,West,270,2.2,2.3,80,0.00,OVC,,0.00,WeatherDisplay:10.37,2013-03-03 10:50:00,
2013-03-03 05:55:00,31.8,26.3,29.62,NNW,337,0.1,2.7,80,0.00,OVC,,0.00,WeatherDisplay:10.37,2013-03-03 10:55:00,
2013-03-03 06:00:00,31.7,25.9,29.62,WNW,292,2.7,2.7,79,0.00,OVC,,0.00,WeatherDisplay:10.37,2013-03-03 11:00:00,
2013-03-03 06:05:00,31.7,26.2,29.63,NW,315,1.2,2.3,80,0.00,OVC,,0.00,WeatherDisplay:10.37,2013-03-03 11:05:00,
2013-03-03 06:10:00,31.6,26.1,29.63,WNW,292,1.9,2.3,80,0.00,OVC,,0.00,WeatherDisplay:10.37,2013-03-03 11:10:00,
2013-03-03 06:15:00,31.6,26.1,29.63,WNW,292,1.1,2.3,80,0.00,OVC,,0.00,WeatherDisplay:10.37,2013-03-03 11:15:00,
2013-03-03 06:20:00,31.6,26.1,29.63,West,270,0.7,2.3,80,0.00,OVC,,0.00,WeatherDisplay:10.37,2013-03-03 11:20:00,
2013-03-03 06:25:00,31.7,25.9,29.63,West,270,1.9,2.3,79,0.00,OVC,,0.00,WeatherDisplay:10.37,2013-03-03 11:25:00,
2013-03-03 06:30:00,31.7,26.2,29.63,SE,135,1.1,2.3,80,0.00,OVC,,0.00,WeatherDisplay:10.37,2013-03-03 11:30:00,
2013-03-03 06:35:00,31.6,26.1,29.63,NW,315,1.9,2.7,80,0.00,OVC,,0.00,WeatherDisplay:10.37,2013-03-03 11:35:00,
2013-03-03 06:40:00,31.6,26.1,29.63,WNW,292,1.3,2.3,80,0.00,OVC,,0.00,WeatherDisplay:10.37,2013-03-03 11:40:00,
2013-03-03 06:45:00,31.6,26.1,29.63,WNW,292,1.5,2.3,80,0.00,OVC,,0.00,WeatherDisplay:10.37,2013-03-03 11:45:00,
2013-03-03 06:50:00,31.7,26.5,29.63,WNW,292,0.0,0.0,81,0.00,OVC,,0.00,WeatherDisplay:10.37,2013-03-03 11:50:00,
2013-03-03 06:55:00,31.7,26.2,29.63,WNW,292,1.9,2.7,80,0.00,OVC,,0.00,WeatherDisplay:10.37,2013-03-03 11:55:00,
2013-03-03 07:00:00,31.7,26.2,29.63,North,360,0.7,1.2,80,0.00,OVC,,0.00,WeatherDisplay:10.37,2013-03-03 12:00:00,
2013-03-03 07:05:00,31.8,26.0,29.63,NW,315,1.3,2.3,79,0.00,OVC,,0.00,WeatherDisplay:10.37,2013-03-03 12:05:00,
2013-03-03 07:10:00,31.9,26.1,29.63,WNW,292,1.6,2.3,79,0.00,OVC,,0.00,WeatherDisplay:10.37,2013-03-03 12:10:00,
2013-03-03 07:15:00,31.9,26.1,29.63,WNW,292,2.6,2.6,79,0.00,OVC,,0.00,WeatherDisplay:10.37,2013-03-03 12:15:00,
2013-03-03 07:20:00,32.0,25.9,29.63,NW,315,2.3,4.6,78,0.00,OVC,,0.00,WeatherDisplay:10.37,2013-03-03 12:20:00,
2013-03-03 07:25:00,32.1,25.7,29.63,West,270,2.9,4.6,77,0.00,OVC,,0.00,WeatherDisplay:10.37,2013-03-03 12:25:00,
2013-03-03 07:30:00,32.2,25.8,29.63,WNW,292,3.6,5.8,77,0.00,OVC,,0.00,WeatherDisplay:10.37,2013-03-03 12:30:00,
2013-03-03 07:35:00,32.3,25.9,29.63,West,270,2.8,2.8,77,0.00,OVC,,0.00,WeatherDisplay:10.37,2013-03-03 12:35:00,
2013-03-03 07:40:00,32.5,26.4,29.63,WNW,292,3.4,4.6,78,0.00,OVC,,0.00,WeatherDisplay:10.37,2013-03-03 12:40:00,
2013-03-03 07:45:00,32.6,25.9,29.63,West,270,3.3,5.4,76,0.00,OVC,,0.00,WeatherDisplay:10.37,2013-03-03 12:45:00,
2013-03-03 07:50:00,32.7,26.0,29.63,North,360,3.2,4.6,76,0.00,OVC,,0.00,WeatherDisplay:10.37,2013-03-03 12:50:00,
2013-03-03 07:55:00,32.9,25.8,29.63,West,270,2.1,2.3,75,0.00,OVC,,0.00,WeatherDisplay:10.37,2013-03-03 12:55:00,
2013-03-03 08:00:00,33.1,26.0,29.63,West,270,3.3,8.1,75,0.00,OVC,,0.00,WeatherDisplay:10.37,2013-03-03 13:00:00,
2013-03-03 08:05:00,32.9,25.8,29.63,West,270,3.9,5.8,75,0.00,OVC,,0.00,WeatherDisplay:10.37,2013-03-03 13:05:00,
2013-03-03 08:10:00,33.3,26.2,29.64,NW,315,1.7,2.7,75,0.00,OVC,,0.00,WeatherDisplay:10.37,2013-03-03 13:10:00,
2013-03-03 08:19:00,33.6,25.9,29.64,WSW,247,7.8,7.8,73,0.00,CLR,,0.00,WeatherDisplay:10.37,2013-03-03 13:19:00,
2013-03-03 08:24:00,33.7,25.6,29.63,NNE,22,4.0,4.0,72,0.00,OVC,,0.00,WeatherDisplay:10.37,2013-03-03 13:24:00,
2013-03-03 08:29:00,33.8,26.1,29.63,NW,315,3.7,8.1,73,0.00,OVC,,0.00,WeatherDisplay:10.37,2013-03-03 13:29:00,
2013-03-03 08:34:00,33.8,26.1,29.63,North,360,5.0,6.9,73,0.00,OVC,,0.00,WeatherDisplay:10.37,2013-03-03 13:34:00,
2013-03-03 08:39:00,34.1,26.0,29.63,NNE,22,1.2,1.2,72,0.00,OVC,,0.00,WeatherDisplay:10.37,2013-03-03 13:39:00,
2013-03-03 08:44:00,34.3,26.2,29.63,North,360,2.6,2.6,72,0.00,OVC,,0.00,WeatherDisplay:10.37,2013-03-03 13:44:00,
2013-03-03 08:49:00,34.3,25.9,29.63,NNW,337,4.3,5.8,71,0.00,OVC,,0.00,WeatherDisplay:10.37,2013-03-03 13:49:00,
2013-03-03 08:54:00,34.4,26.0,29.63,NE,45,2.2,4.6,71,0.00,OVC,,0.00,WeatherDisplay:10.37,2013-03-03 13:54:00,
2013-03-03 08:59:00,34.8,26.4,29.63,North,360,4.0,4.6,71,0.00,OVC,,0.00,WeatherDisplay:10.37,2013-03-03 13:59:00,
2013-03-03 09:04:00,34.9,26.1,29.63,NNW,337,3.2,5.8,70,0.00,OVC,,0.00,WeatherDisplay:10.37,2013-03-03 14:04:00,
2013-03-03 09:09:00,35.2,26.4,29.63,West,270,2.1,2.7,70,0.00,OVC,,0.00,WeatherDisplay:10.37,2013-03-03 14:09:00,
2013-03-03 09:14:00,35.1,26.3,29.63,NE,45,3.4,5.8,70,0.00,OVC,,0.00,WeatherDisplay:10.37,2013-03-03 14:14:00,
2013-03-03 09:19:00,35.1,26.6,29.63,West,270,6.5,8.1,71,0.00,OVC,,0.00,WeatherDisplay:10.37,2013-03-03 14:19:00,
2013-03-03 09:24:00,35.3,26.5,29.63,West,270,5.5,5.8,70,0.00,OVC,,0.00,WeatherDisplay:10.37,2013-03-03 14:24:00,
2013-03-03 09:29:00,35.5,26.7,29.63,West,270,2.9,2.9,70,0.00,OVC,,0.00,WeatherDisplay:10.37,2013-03-03 14:29:00,
2013-03-03 09:34:00,35.7,26.5,29.63,WNW,292,3.6,5.8,69,0.00,OVC,,0.00,WeatherDisplay:10.37,2013-03-03 14:34:00,
2013-03-03 09:39:00,35.7,26.9,29.63,WNW,292,3.4,5.8,70,0.00,OVC,,0.00,WeatherDisplay:10.37,2013-03-03 14:39:00,
2013-03-03 09:44:00,35.9,26.4,29.63,WNW,292,5.1,8.1,68,0.00,OVC,,0.00,WeatherDisplay:10.37,2013-03-03 14:44:00,
2013-03-03 09:49:00,35.7,26.9,29.63,West,270,5.4,8.1,70,0.00,OVC,,0.00,WeatherDisplay:10.37,2013-03-03 14:49:00,
2013-03-03 09:54:00,35.9,26.7,29.63,WNW,292,5.4,8.1,69,0.00,OVC,,0.00,WeatherDisplay:10.37,2013-03-03 14:54:00,
2013-03-03 09:59:00,36.3,26.7,29.63,NW,315,4.0,6.9,68,0.00,OVC,,0.00,WeatherDisplay:10.37,2013-03-03 14:59:00,
2013-03-03 10:04:00,36.8,27.2,29.63,WNW,292,3.4,6.9,68,0.00,OVC,,0.00,WeatherDisplay:10.37,2013-03-03 15:04:00,
2013-03-03 10:09:00,37.5,26.8,29.62,WSW,247,5.1,9.2,65,0.00,OVC,,0.00,WeatherDisplay:10.37,2013-03-03 15:09:00,
2013-03-03 10:14:00,38.0,27.6,29.62,West,270,2.0,4.6,66,0.00,OVC,,0.00,WeatherDisplay:10.37,2013-03-03 15:14:00,
2013-03-03 10:19:00,38.1,28.1,29.62,West,270,6.6,6.9,67,0.00,OVC,,0.00,WeatherDisplay:10.37,2013-03-03 15:19:00,
2013-03-03 10:24:00,37.7,27.0,29.62,North,360,2.1,5.8,65,0.00,OVC,,0.00,WeatherDisplay:10.37,2013-03-03 15:24:00,
2013-03-03 10:29:00,37.8,27.1,29.62,NNE,22,2.3,5.8,65,0.00,OVC,,0.00,WeatherDisplay:10.37,2013-03-03 15:29:00,
2013-03-03 10:34:00,37.6,27.3,29.62,NE,45,2.6,4.6,66,0.00,OVC,,0.00,WeatherDisplay:10.37,2013-03-03 15:34:00,
2013-03-03 10:39:00,37.8,27.5,29.62,West,270,4.6,8.1,66,0.00,OVC,,0.00,WeatherDisplay:10.37,2013-03-03 15:39:00,
2013-03-03 10:44:00,38.2,27.5,29.62,WNW,292,3.9,8.1,65,0.00,OVC,,0.00,WeatherDisplay:10.37,2013-03-03 15:44:00,
2013-03-03 10:49:00,38.8,28.0,29.62,NNE,22,1.7,2.3,65,0.00,OVC,,0.00,WeatherDisplay:10.37,2013-03-03 15:49:00,
2013-03-03 10:54:00,39.5,27.5,29.62,SE,135,2.4,4.6,62,0.00,OVC,,0.00,WeatherDisplay:10.37,2013-03-03 15:54:00,
2013-03-03 10:59:00,39.8,28.2,29.61,North,360,5.4,6.9,63,0.00,OVC,,0.00,WeatherDisplay:10.37,2013-03-03 15:59:00,
2013-03-03 11:04:00,39.3,28.5,29.61,WSW,247,6.2,8.1,65,0.00,OVC,,0.00,WeatherDisplay:10.37,2013-03-03 16:04:00,
2013-03-03 11:09:00,39.6,28.8,29.61,SSE,157,1.7,5.8,65,0.00,OVC,,0.00,WeatherDisplay:10.37,2013-03-03 16:09:00,
2013-03-03 11:14:00,39.9,28.3,29.61,NE,45,5.3,8.1,63,0.00,OVC,,0.00,WeatherDisplay:10.37,2013-03-03 16:14:00,
2013-03-03 11:19:00,39.9,28.3,29.61,West,270,7.1,9.2,63,0.00,OVC,,0.00,WeatherDisplay:10.37,2013-03-03 16:19:00,
2013-03-03 11:24:00,40.7,28.3,29.62,NE,45,2.8,4.6,61,0.00,OVC,,0.00,WeatherDisplay:10.37,2013-03-03 16:24:00,
2013-03-03 11:29:00,40.9,28.5,29.61,WSW,247,0.9,2.3,61,0.00,OVC,,0.00,WeatherDisplay:10.37,2013-03-03 16:29:00,
2013-03-03 11:34:00,40.5,28.9,29.61,West,270,4.5,6.9,63,0.00,OVC,,0.00,WeatherDisplay:10.37,2013-03-03 16:34:00,
2013-03-03 11:39:00,40.4,28.8,29.61,NW,315,3.8,8.1,63,0.00,OVC,,0.00,WeatherDisplay:10.37,2013-03-03 16:39:00,
2013-03-03 11:44:00,40.7,29.1,29.61,NW,315,4.5,6.9,63,0.00,OVC,,0.00,WeatherDisplay:10.37,2013-03-03 16:44:00,
2013-03-03 11:49:00,41.0,29.0,29.61,NE,45,1.9,2.7,62,0.00,OVC,,0.00,WeatherDisplay:10.37,2013-03-03 16:49:00,
2013-03-03 11:54:00,41.3,29.3,29.61,WNW,292,2.7,5.8,62,0.00,OVC,,0.00,WeatherDisplay:10.37,2013-03-03 16:54:00,
2013-03-03 11:59:00,41.4,28.9,29.60,NW,315,1.2,2.7,61,0.00,OVC,,0.00,WeatherDisplay:10.37,2013-03-03 16:59:00,
2013-03-03 12:04:00,41.1,28.7,29.60,West,270,5.8,8.1,61,0.00,OVC,,0.00,WeatherDisplay:10.37,2013-03-03 17:04:00,
2013-03-03 12:09:00,40.7,29.1,29.60,SW,225,3.6,6.9,63,0.00,OVC,,0.00,WeatherDisplay:10.37,2013-03-03 17:09:00,
2013-03-03 12:14:00,40.5,28.9,29.60,West,270,5.9,8.1,63,0.00,OVC,,0.00,WeatherDisplay:10.37,2013-03-03 17:14:00,
2013-03-03 12:19:00,40.8,28.8,29.60,North,360,1.2,2.7,62,0.00,OVC,,0.00,WeatherDisplay:10.37,2013-03-03 17:19:00,
2013-03-03 12:24:00,41.5,29.0,29.60,NNW,337,1.8,4.6,61,0.00,OVC,,0.00,WeatherDisplay:10.37,2013-03-03 17:24:00,
2013-03-03 12:29:00,41.6,28.7,29.59,West,270,2.4,4.6,60,0.00,OVC,,0.00,WeatherDisplay:10.37,2013-03-03 17:29:00,
2013-03-03 12:34:00,41.2,29.5,29.59,WSW,247,1.3,2.3,63,0.00,OVC,,0.00,WeatherDisplay:10.37,2013-03-03 17:34:00,
2013-03-03 12:39:00,41.3,28.9,29.59,South,180,2.9,4.6,61,0.00,OVC,,0.00,WeatherDisplay:10.37,2013-03-03 17:39:00,
2013-03-03 12:44:00,41.9,29.0,29.59,NNW,337,4.0,8.1,60,0.00,OVC,,0.00,WeatherDisplay:10.37,2013-03-03 17:44:00,
2013-03-03 12:49:00,42.2,29.3,29.59,North,360,3.6,6.9,60,0.00,OVC,,0.00,WeatherDisplay:10.37,2013-03-03 17:49:00,
2013-03-03 12:54:00,41.8,29.3,29.58,NNW,337,4.9,9.2,61,0.00,OVC,,0.00,WeatherDisplay:10.37,2013-03-03 17:54:00,
2013-03-03 12:59:00,42.2,29.3,29.58,WSW,247,1.8,2.3,60,0.00,OVC,,0.00,WeatherDisplay:10.37,2013-03-03 17:59:00,
2013-03-03 13:04:00,42.2,29.3,29.58,North,360,5.0,8.1,60,0.00,OVC,,0.00,WeatherDisplay:10.37,2013-03-03 18:04:00,
2013-03-03 13:09:00,42.2,29.7,29.58,NW,315,2.9,4.6,61,0.00,OVC,,0.00,WeatherDisplay:10.37,2013-03-03 18:09:00,
2013-03-03 13:14:00,42.3,29.4,29.58,NE,45,2.3,2.3,60,0.00,OVC,,0.00,WeatherDisplay:10.37,2013-03-03 18:14:00,
2013-03-03 13:19:00,42.2,29.7,29.58,WNW,292,3.2,5.8,61,0.00,OVC,,0.00,WeatherDisplay:10.37,2013-03-03 18:19:00,
2013-03-03 13:24:00,42.2,29.7,29.58,WNW,292,3.0,5.8,61,0.00,OVC,,0.00,WeatherDisplay:10.37,2013-03-03 18:24:00,
2013-03-03 13:29:00,41.9,29.4,29.57,SSE,157,1.7,2.7,61,0.00,OVC,,0.00,WeatherDisplay:10.37,2013-03-03 18:29:00,
2013-03-03 13:34:00,42.6,29.7,29.57,NE,45,2.8,5.8,60,0.00,OVC,,0.00,WeatherDisplay:10.37,2013-03-03 18:34:00,
2013-03-03 13:39:00,42.7,29.8,29.57,NNE,22,5.1,8.1,60,0.00,OVC,,0.00,WeatherDisplay:10.37,2013-03-03 18:39:00,
2013-03-03 13:44:00,42.5,30.4,29.57,NW,315,1.9,2.7,62,0.00,OVC,,0.00,WeatherDisplay:10.37,2013-03-03 18:44:00,
2013-03-03 13:49:00,42.2,30.1,29.57,WNW,292,4.3,5.8,62,0.00,OVC,,0.00,WeatherDisplay:10.37,2013-03-03 18:49:00,
2013-03-03 13:54:00,42.2,30.5,29.57,West,270,2.6,2.7,63,0.00,OVC,,0.00,WeatherDisplay:10.37,2013-03-03 18:54:00,
2013-03-03 13:59:00,41.9,29.8,29.57,WNW,292,4.3,5.8,62,0.00,OVC,,0.00,WeatherDisplay:10.37,2013-03-03 18:59:00,
2013-03-03 14:04:00,41.8,30.1,29.57,NNE,22,3.9,5.8,63,0.00,OVC,,0.00,WeatherDisplay:10.37,2013-03-03 19:04:00,
2013-03-03 14:09:00,41.9,29.8,29.57,WNW,292,3.3,4.6,62,0.00,OVC,,0.00,WeatherDisplay:10.37,2013-03-03 19:09:00,
2013-03-03 14:14:00,41.9,30.2,29.57,North,360,0.9,2.3,63,0.00,OVC,,0.00,WeatherDisplay:10.37,2013-03-03 19:14:00,
2013-03-03 14:19:00,41.9,30.2,29.57,West,270,3.4,4.6,63,0.00,OVC,,0.00,WeatherDisplay:10.37,2013-03-03 19:19:00,
2013-03-03 14:24:00,41.7,30.0,29.56,NNW,337,2.6,4.6,63,0.00,OVC,,0.00,WeatherDisplay:10.37,2013-03-03 19:24:00,
2013-03-03 14:29:00,41.5,30.2,29.57,SW,225,2.4,2.7,64,0.00,OVC,,0.00,WeatherDisplay:10.37,2013-03-03 19:29:00,
2013-03-03 14:34:00,41.5,30.6,29.57,NE,45,3.3,5.8,65,0.00,OVC,,0.00,WeatherDisplay:10.37,2013-03-03 19:34:00,
2013-03-03 14:39:00,41.4,30.1,29.57,NW,315,3.8,6.9,64,0.00,OVC,,0.00,WeatherDisplay:10.37,2013-03-03 19:39:00,
2013-03-03 14:44:00,41.2,30.3,29.57,SE,135,1.5,2.3,65,0.00,OVC,,0.00,WeatherDisplay:10.37,2013-03-03 19:44:00,
2013-03-03 14:49:00,41.3,30.0,29.56,NNE,22,2.6,4.6,64,0.00,OVC,,0.00,WeatherDisplay:10.37,2013-03-03 19:49:00,
2013-03-03 14:54:00,41.2,30.3,29.56,North,360,3.7,6.9,65,0.00,OVC,,0.00,WeatherDisplay:10.37,2013-03-03 19:54:00,
2013-03-03 14:59:00,41.3,30.0,29.56,WSW,247,2.0,2.7,64,0.00,OVC,,0.00,WeatherDisplay:10.37,2013-03-03 19:59:00,
2013-03-03 15:04:00,41.4,30.5,29.57,NNW,337,4.3,9.2,65,0.00,OVC,,0.00,WeatherDisplay:10.37,2013-03-03 20:04:00,
2013-03-03 15:09:00,41.1,30.6,29.56,West,270,6.3,8.1,66,0.00,OVC,,0.00,WeatherDisplay:10.37,2013-03-03 20:09:00,
2013-03-03 15:14:00,41.0,30.5,29.57,WSW,247,2.9,4.6,66,0.00,OVC,,0.00,WeatherDisplay:10.37,2013-03-03 20:14:00,
2013-03-03 15:19:00,41.0,30.5,29.57,WSW,247,3.6,5.8,66,0.00,OVC,,0.00,WeatherDisplay:10.37,2013-03-03 20:19:00,
2013-03-03 15:24:00,40.9,30.4,29.56,WNW,292,3.6,5.8,66,0.00,OVC,,0.00,WeatherDisplay:10.37,2013-03-03 20:24:00,
2013-03-03 15:29:00,40.9,30.4,29.56,WNW,292,2.8,5.8,66,0.00,OVC,,0.00,WeatherDisplay:10.37,2013-03-03 20:29:00,
2013-03-03 15:34:00,40.8,30.7,29.57,North,360,2.3,4.6,67,0.00,OVC,,0.00,WeatherDisplay:10.37,2013-03-03 20:34:00,
2013-03-03 15:39:00,40.4,31.0,29.57,SW,225,1.9,2.7,69,0.00,OVC,,0.00,WeatherDisplay:10.37,2013-03-03 20:39:00,
2013-03-03 15:44:00,40.1,30.7,29.57,NE,45,2.9,4.6,69,0.00,OVC,,0.00,WeatherDisplay:10.37,2013-03-03 20:44:00,
2013-03-03 15:49:00,40.1,31.1,29.56,WSW,247,3.0,4.6,70,0.00,OVC,,0.00,WeatherDisplay:10.37,2013-03-03 20:49:00,
2013-03-03 15:54:00,40.1,31.1,29.56,NNW,337,3.0,5.8,70,0.00,OVC,,0.00,WeatherDisplay:10.37,2013-03-03 20:54:00,
2013-03-03 15:59:00,40.1,31.1,29.57,WNW,292,2.2,4.6,70,0.00,OVC,,0.00,WeatherDisplay:10.37,2013-03-03 20:59:00,
2013-03-03 16:04:00,40.1,30.7,29.57,West,270,4.6,8.1,69,0.00,OVC,,0.00,WeatherDisplay:10.37,2013-03-03 21:04:00,
2013-03-03 16:09:00,40.3,30.6,29.57,WNW,292,3.4,6.9,68,0.00,OVC,,0.00,WeatherDisplay:10.37,2013-03-03 21:09:00,
2013-03-03 16:14:00,40.5,31.1,29.57,West,270,4.9,6.9,69,0.00,OVC,,0.00,WeatherDisplay:10.37,2013-03-03 21:14:00,
2013-03-03 16:19:00,40.3,30.9,29.57,NW,315,3.8,5.8,69,0.00,OVC,,0.00,WeatherDisplay:10.37,2013-03-03 21:19:00,
2013-03-03 16:24:00,40.2,30.8,29.57,West,270,4.5,6.9,69,0.00,OVC,,0.00,WeatherDisplay:10.37,2013-03-03 21:24:00,
2013-03-03 16:29:00,40.0,31.0,29.57,SSW,202,3.7,5.8,70,0.00,OVC,,0.00,WeatherDisplay:10.37,2013-03-03 21:29:00,
2013-03-03 16:34:00,39.8,31.2,29.57,WNW,292,4.2,5.8,71,0.00,OVC,,0.00,WeatherDisplay:10.37,2013-03-03 21:34:00,
2013-03-03 16:39:00,39.4,31.5,29.57,NE,45,3.2,5.8,73,0.00,OVC,,0.00,WeatherDisplay:10.37,2013-03-03 21:39:00,
2013-03-03 16:44:00,39.3,31.4,29.57,West,270,3.1,5.8,73,0.00,OVC,,0.00,WeatherDisplay:10.37,2013-03-03 21:44:00,
2013-03-03 16:49:00,39.3,31.7,29.58,WSW,247,2.1,2.3,74,0.00,OVC,,0.00,WeatherDisplay:10.37,2013-03-03 21:49:00,
2013-03-03 16:54:00,38.9,31.6,29.57,West,270,3.5,5.8,75,0.00,OVC,,0.00,WeatherDisplay:10.37,2013-03-03 21:54:00,
2013-03-03 16:59:00,38.5,31.6,29.58,West,270,4.8,5.8,76,0.00,OVC,,0.00,WeatherDisplay:10.37,2013-03-03 21:59:00,
2013-03-03 17:04:00,37.9,31.3,29.58,WNW,292,3.4,5.8,77,0.00,OVC,,0.00,WeatherDisplay:10.37,2013-03-03 22:04:00,
2013-03-03 17:09:00,37.5,31.9,29.58,NNW,337,5.6,10.4,80,0.00,OVC,,0.00,WeatherDisplay:10.37,2013-03-03 22:09:00,
2013-03-03 17:14:00,37.0,32.0,29.58,North,360,5.4,9.2,82,0.00,OVC,,0.00,WeatherDisplay:10.37,2013-03-03 22:14:00,
2013-03-03 17:19:00,36.7,32.0,29.58,North,360,4.4,6.9,83,0.00,OVC,,0.00,WeatherDisplay:10.37,2013-03-03 22:19:00,
2013-03-03 17:24:00,36.5,31.8,29.58,West,270,2.5,5.8,83,0.00,OVC,,0.00,WeatherDisplay:10.37,2013-03-03 22:24:00,
2013-03-03 17:29:00,36.4,31.7,29.58,NNW,337,0.5,2.3,83,0.00,OVC,,0.00,WeatherDisplay:10.37,2013-03-03 22:29:00,
2013-03-03 17:34:00,36.3,31.6,29.58,WSW,247,2.6,2.7,83,0.00,OVC,,0.00,WeatherDisplay:10.37,2013-03-03 22:34:00,
2013-03-03 17:39:00,35.9,30.9,29.58,North,360,4.7,8.1,82,0.00,OVC,,0.00,WeatherDisplay:10.37,2013-03-03 22:39:00,
2013-03-03 17:44:00,35.7,31.0,29.58,North,360,3.8,5.8,83,0.00,OVC,,0.00,WeatherDisplay:10.37,2013-03-03 22:44:00,
2013-03-03 17:49:00,35.3,30.9,29.58,North,360,2.6,5.8,84,0.00,OVC,,0.00,WeatherDisplay:10.37,2013-03-03 22:49:00,
2013-03-03 17:54:00,35.1,31.0,29.58,North,360,3.5,6.9,85,0.00,OVC,,0.00,WeatherDisplay:10.37,2013-03-03 22:54:00,
2013-03-03 17:59:00,34.9,30.8,29.58,WSW,247,0.5,2.3,85,0.00,OVC,,0.00,WeatherDisplay:10.37,2013-03-03 22:59:00,
2013-03-03 18:04:00,34.9,30.8,29.58,NNW,337,2.8,2.8,85,0.00,OVC,,0.00,WeatherDisplay:10.37,2013-03-03 23:04:00,
2013-03-03 18:09:00,34.8,31.0,29.58,North,360,4.1,6.9,86,0.00,OVC,,0.00,WeatherDisplay:10.37,2013-03-03 23:09:00,
2013-03-03 18:14:00,34.8,31.0,29.58,West,270,4.0,5.8,86,0.00,OVC,,0.00,WeatherDisplay:10.37,2013-03-03 23:14:00,
2013-03-03 18:19:00,34.8,31.3,29.58,NNW,337,0.7,2.3,87,0.00,OVC,,0.00,WeatherDisplay:10.37,2013-03-03 23:19:00,
2013-03-03 18:24:00,34.8,31.3,29.59,North,360,2.2,2.7,87,0.00,OVC,,0.00,WeatherDisplay:10.37,2013-03-03 23:24:00,
2013-03-03 18:29:00,34.7,31.2,29.59,WSW,247,1.3,2.7,87,0.00,OVC,,0.00,WeatherDisplay:10.37,2013-03-03 23:29:00,
2013-03-03 18:34:00,34.6,31.4,29.59,West,270,3.1,3.1,88,0.00,OVC,,0.00,WeatherDisplay:10.37,2013-03-03 23:34:00,
2013-03-03 18:39:00,34.6,31.4,29.59,West,270,2.4,2.7,88,0.00,OVC,,0.00,WeatherDisplay:10.37,2013-03-03 23:39:00,
2013-03-03 18:44:00,34.5,31.3,29.59,West,270,2.6,2.7,88,0.00,OVC,,0.00,WeatherDisplay:10.37,2013-03-03 23:44:00,
2013-03-03 18:49:00,34.5,31.6,29.59,WSW,247,2.9,5.8,89,0.00,OVC,,0.00,WeatherDisplay:10.37,2013-03-03 23:49:00,
2013-03-03 18:54:00,34.3,31.9,29.59,North,360,4.9,6.9,91,0.00,OVC,,0.00,WeatherDisplay:10.37,2013-03-03 23:54:00,
2013-03-03 18:59:00,34.1,32.0,29.59,West,270,2.5,5.4,92,0.00,OVC,,0.00,WeatherDisplay:10.37,2013-03-03 23:59:00,
2013-03-03 19:04:00,33.9,32.4,29.59,WNW,292,2.5,4.6,94,0.00,OVC,,0.00,WeatherDisplay:10.37,2013-03-04 00:04:00,
2013-03-03 19:09:00,33.7,32.4,29.59,NW,315,2.9,2.9,95,0.00,OVC,,0.00,WeatherDisplay:10.37,2013-03-04 00:09:00,
2013-03-03 19:14:00,33.6,32.3,29.59,West,270,2.9,4.6,95,0.00,OVC,,0.00,WeatherDisplay:10.37,2013-03-04 00:14:00,
2013-03-03 19:19:00,33.4,32.1,29.59,NW,315,2.5,2.5,95,0.00,OVC,,0.00,WeatherDisplay:10.37,2013-03-04 00:19:00,
2013-03-03 19:24:00,33.4,32.1,29.59,West,270,2.9,2.9,95,0.00,OVC,,0.00,WeatherDisplay:10.37,2013-03-04 00:24:00,
2013-03-03 19:29:00,33.4,32.1,29.59,West,270,0.9,2.3,95,0.00,OVC,,0.00,WeatherDisplay:10.37,2013-03-04 00:29:00,
2013-03-03 19:34:00,33.4,32.1,29.59,West,270,2.5,2.5,95,0.00,OVC,,0.00,WeatherDisplay:10.37,2013-03-04 00:34:00,
2013-03-03 19:39:00,33.3,32.0,29.59,NW,315,3.3,5.8,95,0.00,OVC,,0.00,WeatherDisplay:10.37,2013-03-04 00:39:00,
2013-03-03 19:44:00,33.3,32.0,29.60,NNW,337,4.0,5.8,95,0.00,OVC,,0.00,WeatherDisplay:10.37,2013-03-04 00:44:00,
2013-03-03 19:49:00,33.2,31.9,29.60,NW,315,3.7,5.8,95,0.00,OVC,,0.00,WeatherDisplay:10.37,2013-03-04 00:49:00,
2013-03-03 19:54:00,33.1,31.8,29.60,SW,225,2.6,2.7,95,0.00,OVC,,0.00,WeatherDisplay:10.37,2013-03-04 00:54:00,
2013-03-03 19:59:00,32.9,31.6,29.60,West,270,2.4,2.4,95,0.00,OVC,,0.00,WeatherDisplay:10.37,2013-03-04 00:59:00,
2013-03-03 20:04:00,32.9,31.6,29.60,WNW,292,1.9,4.6,95,0.00,OVC,,0.00,WeatherDisplay:10.37,2013-03-04 01:04:00,
2013-03-03 20:09:00,32.7,31.4,29.60,WNW,292,2.1,2.3,95,0.00,OVC,,0.00,WeatherDisplay:10.37,2013-03-04 01:09:00,
2013-03-03 20:14:00,32.7,31.4,29.60,North,360,2.7,2.7,95,0.00,OVC,,0.00,WeatherDisplay:10.37,2013-03-04 01:14:00,
2013-03-03 20:19:00,32.6,31.3,29.60,NNW,337,2.7,5.8,95,0.00,OVC,,0.00,WeatherDisplay:10.37,2013-03-04 01:19:00,
2013-03-03 20:24:00,32.5,31.2,29.60,WNW,292,1.8,2.7,95,0.00,OVC,,0.00,WeatherDisplay:10.37,2013-03-04 01:24:00,
2013-03-03 20:29:00,32.3,31.0,29.60,NNE,22,4.3,6.9,95,0.00,OVC,,0.00,WeatherDisplay:10.37,2013-03-04 01:29:00,
2013-03-03 20:34:00,32.3,31.0,29.60,WNW,292,2.6,5.8,95,0.00,OVC,,0.00,WeatherDisplay:10.37,2013-03-04 01:34:00,
2013-03-03 20:39:00,32.2,30.9,29.60,NW,315,2.6,4.6,95,0.00,OVC,,0.00,WeatherDisplay:10.37,2013-03-04 01:39:00,
2013-03-03 20:44:00,32.1,30.8,29.60,WNW,292,3.5,4.6,95,0.00,-SN,,0.00,WeatherDisplay:10.37,2013-03-04 01:44:00,
2013-03-03 20:49:00,32.1,30.8,29.60,West,270,2.8,2.8,95,0.00,-SN,,0.00,WeatherDisplay:10.37,2013-03-04 01:49:00,
2013-03-03 20:54:00,32.0,30.7,29.60,West,270,5.5,8.1,95,0.00,-SN,,0.00,WeatherDisplay:10.37,2013-03-04 01:54:00,
2013-03-03 20:59:00,31.9,30.6,29.60,WNW,292,3.9,8.1,95,0.00,-SN,,0.00,WeatherDisplay:10.37,2013-03-04 01:59:00,
2013-03-03 21:04:00,31.9,30.6,29.60,NW,315,3.9,5.8,95,0.00,-SN,,0.00,WeatherDisplay:10.37,2013-03-04 02:04:00,
2013-03-03 21:09:00,31.9,30.6,29.60,North,360,2.4,5.8,95,0.00,-SN,,0.00,WeatherDisplay:10.37,2013-03-04 02:09:00,
2013-03-03 21:14:00,31.9,30.6,29.60,North,360,0.9,2.7,95,0.00,-SN,,0.00,WeatherDisplay:10.37,2013-03-04 02:14:00,
2013-03-03 21:19:00,31.8,30.5,29.60,NW,315,2.4,2.4,95,0.00,-SN,,0.00,WeatherDisplay:10.37,2013-03-04 02:19:00,
2013-03-03 21:24:00,31.7,30.4,29.60,WNW,292,2.7,5.8,95,0.00,-SN,,0.00,WeatherDisplay:10.37,2013-03-04 02:24:00,
2013-03-03 21:29:00,31.6,30.3,29.60,WNW,292,2.7,9.2,95,0.00,-SN,,0.00,WeatherDisplay:10.37,2013-03-04 02:29:00,
2013-03-03 21:34:00,31.6,30.3,29.60,WNW,292,2.8,2.8,95,0.00,-SN,,0.00,WeatherDisplay:10.37,2013-03-04 02:34:00,
2013-03-03 21:39:00,31.5,30.2,29.60,North,360,2.6,5.8,95,0.00,-SN,,0.00,WeatherDisplay:10.37,2013-03-04 02:39:00,
2013-03-03 21:44:00,31.5,30.2,29.60,NNW,337,1.9,4.6,95,0.00,-SN,,0.00,WeatherDisplay:10.37,2013-03-04 02:44:00,
2013-03-03 21:49:00,31.4,30.1,29.60,WNW,292,2.5,4.6,95,0.00,-SN,,0.00,WeatherDisplay:10.37,2013-03-04 02:49:00,
2013-03-03 21:54:00,31.4,30.1,29.60,WNW,292,3.1,5.8,95,0.00,-SN,,0.00,WeatherDisplay:10.37,2013-03-04 02:54:00,
2013-03-03 21:59:00,31.3,30.0,29.60,WNW,292,4.6,4.6,95,0.00,-SN,,0.00,WeatherDisplay:10.37,2013-03-04 02:59:00,
2013-03-03 22:04:00,31.3,30.0,29.60,NNW,337,1.7,2.3,95,0.00,-SN,,0.00,WeatherDisplay:10.37,2013-03-04 03:04:00,
2013-03-03 22:09:00,31.2,29.9,29.60,WNW,292,4.5,4.5,95,0.00,-SN,,0.00,WeatherDisplay:10.37,2013-03-04 03:09:00,
2013-03-03 22:14:00,31.2,29.9,29.60,West,270,3.6,5.8,95,0.00,-SN,,0.00,WeatherDisplay:10.37,2013-03-04 03:14:00,
2013-03-03 22:19:00,31.1,29.8,29.59,NNW,337,2.1,2.7,95,0.00,-SN,,0.00,WeatherDisplay:10.37,2013-03-04 03:19:00,
2013-03-03 22:24:00,31.1,29.8,29.59,WNW,292,3.4,6.9,95,0.00,-SN,,0.00,WeatherDisplay:10.37,2013-03-04 03:24:00,
2013-03-03 22:29:00,31.1,29.8,29.59,NW,315,2.8,4.6,95,0.00,-SN,,0.00,WeatherDisplay:10.37,2013-03-04 03:29:00,
2013-03-03 22:34:00,31.1,29.8,29.59,West,270,2.9,4.6,95,0.00,-SN,,0.00,WeatherDisplay:10.37,2013-03-04 03:34:00,
2013-03-03 22:39:00,31.1,29.8,29.59,West,270,2.9,2.9,95,0.00,-SN,,0.00,WeatherDisplay:10.37,2013-03-04 03:39:00,
2013-03-03 22:44:00,31.2,29.9,29.59,West,270,1.5,2.3,95,0.00,-SN,,0.00,WeatherDisplay:10.37,2013-03-04 03:44:00,
2013-03-03 22:49:00,31.2,29.9,29.59,NE,45,2.2,4.1,95,0.00,-SN,,0.00,WeatherDisplay:10.37,2013-03-04 03:49:00,
2013-03-03 22:54:00,31.2,29.9,29.59,West,270,1.1,2.3,95,0.00,-SN,,0.00,WeatherDisplay:10.37,2013-03-04 03:54:00,
2013-03-03 22:59:00,31.3,30.0,29.59,WNW,292,1.9,2.3,95,0.00,-SN,,0.00,WeatherDisplay:10.37,2013-03-04 03:59:00,
2013-03-03 23:04:00,31.4,30.1,29.59,West,270,1.9,2.3,95,0.00,OVC,,0.00,WeatherDisplay:10.37,2013-03-04 04:04:00,
2013-03-03 23:09:00,31.5,30.2,29.59,NW,315,2.4,2.7,95,0.00,OVC,,0.00,WeatherDisplay:10.37,2013-03-04 04:09:00,
2013-03-03 23:14:00,31.6,29.8,29.59,WNW,292,3.2,5.8,93,0.00,OVC,,0.00,WeatherDisplay:10.37,2013-03-04 04:14:00,
2013-03-03 23:19:00,31.7,29.6,29.59,West,270,2.9,2.9,92,0.00,OVC,,0.00,WeatherDisplay:10.37,2013-03-04 04:19:00,
2013-03-03 23:24:00,31.7,29.4,29.59,NW,315,1.8,5.8,91,0.00,OVC,,0.00,WeatherDisplay:10.37,2013-03-04 04:24:00,
2013-03-03 23:29:00,31.9,29.0,29.59,WNW,292,3.2,5.8,89,0.00,OVC,,0.00,WeatherDisplay:10.37,2013-03-04 04:29:00,
2013-03-03 23:34:00,31.9,28.8,29.59,NW,315,3.6,6.9,88,0.00,OVC,,0.00,WeatherDisplay:10.37,2013-03-04 04:34:00,
2013-03-03 23:39:00,31.9,28.8,29.59,NW,315,3.0,4.6,88,0.00,OVC,,0.00,WeatherDisplay:10.37,2013-03-04 04:39:00,
2013-03-03 23:44:00,32.0,28.6,29.59,West,270,3.6,5.8,87,0.00,OVC,,0.00,WeatherDisplay:10.37,2013-03-04 04:44:00,
2013-03-03 23:49:00,32.0,28.6,29.59,North,360,2.9,2.9,87,0.00,OVC,,0.00,WeatherDisplay:10.37,2013-03-04 04:49:00,
2013-03-03 23:54:00,31.9,28.5,29.59,WNW,292,3.8,4.6,87,0.00,OVC,,0.00,WeatherDisplay:10.37,2013-03-04 04:54:00,
2013-03-03 23:59:00,31.9,28.2,29.59,West,270,3.0,6.9,86,0.00,OVC,,0.00,WeatherDisplay:10.37,2013-03-04 04:59:00,